sensor_id;sensor_type;location;lat;lon;timestamp;P1;durP1;ratioP1;P2;durP2;ratioP2
12784;SDS011;6456;42.680;23.260;2023-02-27T00:02:23;17.43;;;9.33;;
12784;SDS011;6456;42.680;23.260;2023-02-27T00:04:50;17.10;;;8.60;;
12784;SDS011;6456;42.680;23.260;2023-02-27T00:07:18;17.07;;;8.07;;
12784;SDS011;6456;42.680;23.260;2023-02-27T00:09:50;17.90;;;7.87;;
12784;SDS011;6456;42.680;23.260;2023-02-27T00:12:18;18.97;;;8.57;;
12784;SDS011;6456;42.680;23.260;2023-02-27T00:14:45;19.30;;;8.83;;
12784;SDS011;6456;42.680;23.260;2023-02-27T00:17:12;16.67;;;7.60;;
12784;SDS011;6456;42.680;23.260;2023-02-27T00:19:39;13.30;;;7.90;;
12784;SDS011;6456;42.680;23.260;2023-02-27T00:22:06;18.27;;;7.47;;
12784;SDS011;6456;42.680;23.260;2023-02-27T00:24:32;21.00;;;8.03;;
12784;SDS011;6456;42.680;23.260;2023-02-27T00:26:59;16.97;;;8.07;;
12784;SDS011;6456;42.680;23.260;2023-02-27T00:29:27;21.33;;;9.40;;
12784;SDS011;6456;42.680;23.260;2023-02-27T00:31:54;22.50;;;8.73;;
12784;SDS011;6456;42.680;23.260;2023-02-27T00:34:21;14.80;;;8.93;;
12784;SDS011;6456;42.680;23.260;2023-02-27T00:36:48;16.53;;;7.77;;
12784;SDS011;6456;42.680;23.260;2023-02-27T00:39:15;14.60;;;8.03;;
12784;SDS011;6456;42.680;23.260;2023-02-27T00:41:42;15.23;;;7.30;;
12784;SDS011;6456;42.680;23.260;2023-02-27T00:44:08;19.87;;;8.17;;
12784;SDS011;6456;42.680;23.260;2023-02-27T00:46:37;17.87;;;8.27;;
12784;SDS011;6456;42.680;23.260;2023-02-27T00:49:03;20.47;;;7.83;;
12784;SDS011;6456;42.680;23.260;2023-02-27T00:51:30;22.43;;;8.70;;
12784;SDS011;6456;42.680;23.260;2023-02-27T00:53:57;17.93;;;5.90;;
12784;SDS011;6456;42.680;23.260;2023-02-27T00:56:24;17.20;;;5.63;;
12784;SDS011;6456;42.680;23.260;2023-02-27T00:58:51;22.00;;;6.47;;
12784;SDS011;6456;42.680;23.260;2023-02-27T01:01:17;16.63;;;5.67;;
12784;SDS011;6456;42.680;23.260;2023-02-27T01:03:46;18.10;;;5.30;;
12784;SDS011;6456;42.680;23.260;2023-02-27T01:06:12;12.70;;;4.73;;
12784;SDS011;6456;42.680;23.260;2023-02-27T01:08:39;18.50;;;5.37;;
12784;SDS011;6456;42.680;23.260;2023-02-27T01:11:06;16.93;;;4.80;;
12784;SDS011;6456;42.680;23.260;2023-02-27T01:13:33;14.83;;;4.63;;
12784;SDS011;6456;42.680;23.260;2023-02-27T01:16:00;22.80;;;4.70;;
12784;SDS011;6456;42.680;23.260;2023-02-27T01:18:26;12.77;;;4.20;;
12784;SDS011;6456;42.680;23.260;2023-02-27T01:20:55;17.90;;;4.83;;
12784;SDS011;6456;42.680;23.260;2023-02-27T01:23:22;13.63;;;4.83;;
12784;SDS011;6456;42.680;23.260;2023-02-27T01:25:49;17.60;;;4.77;;
12784;SDS011;6456;42.680;23.260;2023-02-27T01:28:16;17.53;;;5.70;;
12784;SDS011;6456;42.680;23.260;2023-02-27T01:30:42;21.07;;;6.97;;
12784;SDS011;6456;42.680;23.260;2023-02-27T01:33:09;18.90;;;6.47;;
12784;SDS011;6456;42.680;23.260;2023-02-27T01:35:36;15.77;;;5.77;;
12784;SDS011;6456;42.680;23.260;2023-02-27T01:38:04;17.83;;;7.00;;
12784;SDS011;6456;42.680;23.260;2023-02-27T01:40:34;20.13;;;6.40;;
12784;SDS011;6456;42.680;23.260;2023-02-27T01:43:01;16.77;;;6.13;;
12784;SDS011;6456;42.680;23.260;2023-02-27T01:45:30;19.07;;;7.17;;
12784;SDS011;6456;42.680;23.260;2023-02-27T01:48:00;19.93;;;6.90;;
12784;SDS011;6456;42.680;23.260;2023-02-27T01:50:30;19.77;;;6.87;;
12784;SDS011;6456;42.680;23.260;2023-02-27T01:53:00;18.47;;;7.37;;
12784;SDS011;6456;42.680;23.260;2023-02-27T01:55:30;20.23;;;6.90;;
12784;SDS011;6456;42.680;23.260;2023-02-27T01:58:02;16.43;;;7.50;;
12784;SDS011;6456;42.680;23.260;2023-02-27T02:00:29;17.13;;;6.73;;
12784;SDS011;6456;42.680;23.260;2023-02-27T02:02:59;20.17;;;7.43;;
12784;SDS011;6456;42.680;23.260;2023-02-27T02:05:30;17.97;;;7.43;;
12784;SDS011;6456;42.680;23.260;2023-02-27T02:07:58;17.17;;;6.67;;
12784;SDS011;6456;42.680;23.260;2023-02-27T02:10:26;20.13;;;6.50;;
12784;SDS011;6456;42.680;23.260;2023-02-27T02:12:55;23.03;;;6.60;;
12784;SDS011;6456;42.680;23.260;2023-02-27T02:15:24;12.63;;;5.70;;
12784;SDS011;6456;42.680;23.260;2023-02-27T02:18:01;22.23;;;6.53;;
12784;SDS011;6456;42.680;23.260;2023-02-27T02:20:45;8.53;;;3.17;;
12784;SDS011;6456;42.680;23.260;2023-02-27T02:23:40;6.60;;;2.20;;
12784;SDS011;6456;42.680;23.260;2023-02-27T02:26:39;7.23;;;2.90;;
12784;SDS011;6456;42.680;23.260;2023-02-27T02:29:20;3.53;;;1.77;;
12784;SDS011;6456;42.680;23.260;2023-02-27T02:38:33;4.20;;;1.33;;
12784;SDS011;6456;42.680;23.260;2023-02-27T02:41:17;4.10;;;1.30;;
12784;SDS011;6456;42.680;23.260;2023-02-27T02:43:56;1.70;;;0.93;;
12784;SDS011;6456;42.680;23.260;2023-02-27T02:46:30;1.20;;;1.03;;
12784;SDS011;6456;42.680;23.260;2023-02-27T02:49:09;2.70;;;0.90;;
12784;SDS011;6456;42.680;23.260;2023-02-27T02:51:44;3.17;;;1.10;;
12784;SDS011;6456;42.680;23.260;2023-02-27T02:54:18;3.77;;;2.10;;
12784;SDS011;6456;42.680;23.260;2023-02-27T02:56:51;5.50;;;3.43;;
12784;SDS011;6456;42.680;23.260;2023-02-27T02:59:29;5.07;;;3.67;;
12784;SDS011;6456;42.680;23.260;2023-02-27T03:01:59;7.57;;;4.50;;
12784;SDS011;6456;42.680;23.260;2023-02-27T03:04:30;5.23;;;4.40;;
12784;SDS011;6456;42.680;23.260;2023-02-27T03:07:03;6.20;;;4.50;;
12784;SDS011;6456;42.680;23.260;2023-02-27T03:09:37;8.70;;;4.97;;
12784;SDS011;6456;42.680;23.260;2023-02-27T03:12:09;7.43;;;5.17;;
12784;SDS011;6456;42.680;23.260;2023-02-27T03:14:43;7.27;;;4.97;;
12784;SDS011;6456;42.680;23.260;2023-02-27T03:17:15;5.90;;;5.30;;
12784;SDS011;6456;42.680;23.260;2023-02-27T03:19:48;6.50;;;5.23;;
12784;SDS011;6456;42.680;23.260;2023-02-27T03:22:20;7.90;;;5.13;;
12784;SDS011;6456;42.680;23.260;2023-02-27T03:24:54;8.03;;;5.40;;
12784;SDS011;6456;42.680;23.260;2023-02-27T03:27:24;7.50;;;5.83;;
12784;SDS011;6456;42.680;23.260;2023-02-27T03:29:57;7.50;;;5.40;;
12784;SDS011;6456;42.680;23.260;2023-02-27T03:32:30;9.30;;;4.83;;
12784;SDS011;6456;42.680;23.260;2023-02-27T03:35:01;8.17;;;5.43;;
12784;SDS011;6456;42.680;23.260;2023-02-27T03:37:33;6.87;;;5.37;;
12784;SDS011;6456;42.680;23.260;2023-02-27T03:40:12;8.07;;;5.47;;
12784;SDS011;6456;42.680;23.260;2023-02-27T03:42:46;8.43;;;5.70;;
12784;SDS011;6456;42.680;23.260;2023-02-27T03:45:19;8.70;;;5.13;;
12784;SDS011;6456;42.680;23.260;2023-02-27T03:47:53;7.47;;;5.30;;
12784;SDS011;6456;42.680;23.260;2023-02-27T03:50:20;7.63;;;5.57;;
12784;SDS011;6456;42.680;23.260;2023-02-27T03:52:47;8.53;;;5.70;;
12784;SDS011;6456;42.680;23.260;2023-02-27T03:55:17;7.30;;;5.47;;
12784;SDS011;6456;42.680;23.260;2023-02-27T03:57:46;9.13;;;5.90;;
12784;SDS011;6456;42.680;23.260;2023-02-27T04:00:15;7.93;;;5.83;;
12784;SDS011;6456;42.680;23.260;2023-02-27T04:02:43;7.57;;;5.60;;
12784;SDS011;6456;42.680;23.260;2023-02-27T04:05:14;6.37;;;5.13;;
12784;SDS011;6456;42.680;23.260;2023-02-27T04:07:42;6.87;;;4.90;;
12784;SDS011;6456;42.680;23.260;2023-02-27T04:10:23;6.23;;;5.20;;
12784;SDS011;6456;42.680;23.260;2023-02-27T04:13:20;8.10;;;5.47;;
12784;SDS011;6456;42.680;23.260;2023-02-27T04:16:04;7.53;;;5.23;;
12784;SDS011;6456;42.680;23.260;2023-02-27T04:18:53;7.73;;;5.53;;
12784;SDS011;6456;42.680;23.260;2023-02-27T04:21:29;8.20;;;5.07;;
12784;SDS011;6456;42.680;23.260;2023-02-27T04:24:01;5.80;;;5.10;;
12784;SDS011;6456;42.680;23.260;2023-02-27T04:26:48;6.37;;;4.87;;
12784;SDS011;6456;42.680;23.260;2023-02-27T04:29:21;7.63;;;5.30;;
12784;SDS011;6456;42.680;23.260;2023-02-27T04:31:56;8.20;;;6.13;;
12784;SDS011;6456;42.680;23.260;2023-02-27T04:34:27;6.43;;;5.00;;
12784;SDS011;6456;42.680;23.260;2023-02-27T04:37:00;8.10;;;6.20;;
12784;SDS011;6456;42.680;23.260;2023-02-27T04:39:33;7.17;;;4.93;;
12784;SDS011;6456;42.680;23.260;2023-02-27T04:42:08;5.70;;;4.67;;
12784;SDS011;6456;42.680;23.260;2023-02-27T04:44:37;6.20;;;4.90;;
12784;SDS011;6456;42.680;23.260;2023-02-27T04:47:07;7.50;;;5.47;;
12784;SDS011;6456;42.680;23.260;2023-02-27T04:49:38;7.53;;;5.37;;
12784;SDS011;6456;42.680;23.260;2023-02-27T04:52:11;8.30;;;5.33;;
12784;SDS011;6456;42.680;23.260;2023-02-27T04:54:42;7.27;;;5.13;;
12784;SDS011;6456;42.680;23.260;2023-02-27T04:57:17;9.27;;;5.70;;
12784;SDS011;6456;42.680;23.260;2023-02-27T04:59:51;5.07;;;4.13;;
12784;SDS011;6456;42.680;23.260;2023-02-27T05:02:21;6.53;;;3.87;;
12784;SDS011;6456;42.680;23.260;2023-02-27T05:04:52;3.73;;;3.33;;
12784;SDS011;6456;42.680;23.260;2023-02-27T05:07:25;4.07;;;3.50;;
12784;SDS011;6456;42.680;23.260;2023-02-27T05:09:55;4.73;;;3.43;;
12784;SDS011;6456;42.680;23.260;2023-02-27T05:12:30;4.20;;;3.53;;
12784;SDS011;6456;42.680;23.260;2023-02-27T05:15:03;3.73;;;3.30;;
12784;SDS011;6456;42.680;23.260;2023-02-27T05:17:37;4.17;;;3.30;;
12784;SDS011;6456;42.680;23.260;2023-02-27T05:20:06;3.10;;;2.70;;
12784;SDS011;6456;42.680;23.260;2023-02-27T05:22:36;3.27;;;2.73;;
12784;SDS011;6456;42.680;23.260;2023-02-27T05:25:11;2.67;;;2.47;;
12784;SDS011;6456;42.680;23.260;2023-02-27T05:27:43;2.60;;;2.40;;
12784;SDS011;6456;42.680;23.260;2023-02-27T05:30:16;4.27;;;2.60;;
12784;SDS011;6456;42.680;23.260;2023-02-27T05:32:47;2.80;;;2.50;;
12784;SDS011;6456;42.680;23.260;2023-02-27T05:35:22;3.07;;;2.10;;
12784;SDS011;6456;42.680;23.260;2023-02-27T05:37:52;5.03;;;2.60;;
12784;SDS011;6456;42.680;23.260;2023-02-27T05:40:29;3.03;;;2.33;;
12784;SDS011;6456;42.680;23.260;2023-02-27T05:43:03;2.90;;;2.53;;
12784;SDS011;6456;42.680;23.260;2023-02-27T05:45:32;3.63;;;2.37;;
12784;SDS011;6456;42.680;23.260;2023-02-27T05:48:06;2.50;;;2.30;;
12784;SDS011;6456;42.680;23.260;2023-02-27T05:50:36;2.90;;;2.27;;
12784;SDS011;6456;42.680;23.260;2023-02-27T05:53:05;3.13;;;2.20;;
12784;SDS011;6456;42.680;23.260;2023-02-27T05:55:35;3.27;;;2.20;;
12784;SDS011;6456;42.680;23.260;2023-02-27T05:58:07;2.20;;;2.00;;
12784;SDS011;6456;42.680;23.260;2023-02-27T06:00:42;2.70;;;2.30;;
12784;SDS011;6456;42.680;23.260;2023-02-27T06:03:11;3.10;;;2.40;;
12784;SDS011;6456;42.680;23.260;2023-02-27T06:05:40;2.60;;;2.30;;
12784;SDS011;6456;42.680;23.260;2023-02-27T06:08:08;3.50;;;3.20;;
12784;SDS011;6456;42.680;23.260;2023-02-27T06:10:35;3.07;;;2.77;;
12784;SDS011;6456;42.680;23.260;2023-02-27T06:13:02;3.17;;;2.50;;
12784;SDS011;6456;42.680;23.260;2023-02-27T06:15:30;3.30;;;3.00;;
12784;SDS011;6456;42.680;23.260;2023-02-27T06:17:57;2.83;;;2.37;;
12784;SDS011;6456;42.680;23.260;2023-02-27T06:20:24;3.00;;;2.70;;
12784;SDS011;6456;42.680;23.260;2023-02-27T06:22:51;3.23;;;2.80;;
12784;SDS011;6456;42.680;23.260;2023-02-27T06:25:18;3.00;;;2.70;;
12784;SDS011;6456;42.680;23.260;2023-02-27T06:27:46;6.87;;;3.90;;
12784;SDS011;6456;42.680;23.260;2023-02-27T06:30:13;3.73;;;3.30;;
12784;SDS011;6456;42.680;23.260;2023-02-27T06:32:41;5.40;;;4.00;;
12784;SDS011;6456;42.680;23.260;2023-02-27T06:35:08;4.70;;;2.70;;
12784;SDS011;6456;42.680;23.260;2023-02-27T06:37:36;2.80;;;2.53;;
12784;SDS011;6456;42.680;23.260;2023-02-27T06:40:03;2.97;;;2.67;;
12784;SDS011;6456;42.680;23.260;2023-02-27T06:42:35;3.30;;;2.80;;
12784;SDS011;6456;42.680;23.260;2023-02-27T06:45:02;3.10;;;2.80;;
12784;SDS011;6456;42.680;23.260;2023-02-27T06:47:30;13.03;;;6.13;;
12784;SDS011;6456;42.680;23.260;2023-02-27T06:49:59;3.87;;;3.30;;
12784;SDS011;6456;42.680;23.260;2023-02-27T06:52:26;3.20;;;2.90;;
12784;SDS011;6456;42.680;23.260;2023-02-27T06:54:53;2.73;;;2.43;;
12784;SDS011;6456;42.680;23.260;2023-02-27T06:57:20;2.50;;;2.30;;
12784;SDS011;6456;42.680;23.260;2023-02-27T06:59:47;2.83;;;2.40;;
12784;SDS011;6456;42.680;23.260;2023-02-27T07:02:14;2.67;;;2.47;;
12784;SDS011;6456;42.680;23.260;2023-02-27T07:04:42;2.87;;;2.43;;
12784;SDS011;6456;42.680;23.260;2023-02-27T07:07:10;2.40;;;2.17;;
12784;SDS011;6456;42.680;23.260;2023-02-27T07:09:37;3.73;;;2.67;;
12784;SDS011;6456;42.680;23.260;2023-02-27T07:12:04;4.17;;;2.70;;
12784;SDS011;6456;42.680;23.260;2023-02-27T07:14:32;3.77;;;2.93;;
12784;SDS011;6456;42.680;23.260;2023-02-27T07:16:59;3.37;;;2.97;;
12784;SDS011;6456;42.680;23.260;2023-02-27T07:19:28;3.63;;;2.87;;
12784;SDS011;6456;42.680;23.260;2023-02-27T07:21:56;3.40;;;2.80;;
12784;SDS011;6456;42.680;23.260;2023-02-27T07:24:24;3.50;;;3.20;;
12784;SDS011;6456;42.680;23.260;2023-02-27T07:26:51;4.30;;;3.03;;
12784;SDS011;6456;42.680;23.260;2023-02-27T07:29:19;3.77;;;3.47;;
12784;SDS011;6456;42.680;23.260;2023-02-27T07:31:45;3.07;;;2.83;;
12784;SDS011;6456;42.680;23.260;2023-02-27T07:34:12;3.97;;;3.43;;
12784;SDS011;6456;42.680;23.260;2023-02-27T07:36:39;3.77;;;3.20;;
12784;SDS011;6456;42.680;23.260;2023-02-27T07:39:07;4.67;;;3.50;;
12784;SDS011;6456;42.680;23.260;2023-02-27T07:41:36;5.67;;;3.17;;
12784;SDS011;6456;42.680;23.260;2023-02-27T07:44:03;4.73;;;3.20;;
12784;SDS011;6456;42.680;23.260;2023-02-27T07:46:31;3.33;;;2.90;;
12784;SDS011;6456;42.680;23.260;2023-02-27T07:48:58;3.80;;;2.70;;
12784;SDS011;6456;42.680;23.260;2023-02-27T07:51:24;3.10;;;2.73;;
12784;SDS011;6456;42.680;23.260;2023-02-27T07:53:51;3.50;;;3.20;;
12784;SDS011;6456;42.680;23.260;2023-02-27T07:56:18;3.50;;;3.20;;
12784;SDS011;6456;42.680;23.260;2023-02-27T07:58:46;3.80;;;2.93;;
12784;SDS011;6456;42.680;23.260;2023-02-27T08:01:13;2.57;;;2.37;;
12784;SDS011;6456;42.680;23.260;2023-02-27T08:03:40;2.73;;;2.53;;
12784;SDS011;6456;42.680;23.260;2023-02-27T08:06:06;4.70;;;2.97;;
12784;SDS011;6456;42.680;23.260;2023-02-27T08:08:33;3.73;;;2.60;;
12784;SDS011;6456;42.680;23.260;2023-02-27T08:11:00;3.03;;;2.73;;
12784;SDS011;6456;42.680;23.260;2023-02-27T08:13:27;4.47;;;2.83;;
12784;SDS011;6456;42.680;23.260;2023-02-27T08:15:55;2.60;;;2.40;;
12784;SDS011;6456;42.680;23.260;2023-02-27T08:18:22;4.30;;;2.60;;
12784;SDS011;6456;42.680;23.260;2023-02-27T08:20:49;3.53;;;2.50;;
12784;SDS011;6456;42.680;23.260;2023-02-27T08:23:15;4.50;;;2.60;;
12784;SDS011;6456;42.680;23.260;2023-02-27T08:25:42;3.27;;;2.50;;
12784;SDS011;6456;42.680;23.260;2023-02-27T08:28:09;2.80;;;2.60;;
12784;SDS011;6456;42.680;23.260;2023-02-27T08:30:36;3.23;;;2.20;;
12784;SDS011;6456;42.680;23.260;2023-02-27T08:33:04;2.57;;;2.37;;
12784;SDS011;6456;42.680;23.260;2023-02-27T08:35:31;3.47;;;2.17;;
12784;SDS011;6456;42.680;23.260;2023-02-27T08:37:58;2.93;;;2.03;;
12784;SDS011;6456;42.680;23.260;2023-02-27T08:40:25;2.63;;;1.83;;
12784;SDS011;6456;42.680;23.260;2023-02-27T08:42:52;2.23;;;2.03;;
12784;SDS011;6456;42.680;23.260;2023-02-27T08:45:18;2.30;;;1.83;;
12784;SDS011;6456;42.680;23.260;2023-02-27T08:47:45;2.13;;;1.97;;
12784;SDS011;6456;42.680;23.260;2023-02-27T08:50:13;4.30;;;2.20;;
12784;SDS011;6456;42.680;23.260;2023-02-27T08:52:40;3.17;;;2.50;;
12784;SDS011;6456;42.680;23.260;2023-02-27T08:55:07;4.23;;;2.37;;
12784;SDS011;6456;42.680;23.260;2023-02-27T08:57:35;3.70;;;2.57;;
12784;SDS011;6456;42.680;23.260;2023-02-27T09:00:02;2.60;;;2.40;;
12784;SDS011;6456;42.680;23.260;2023-02-27T09:02:31;2.67;;;2.47;;
12784;SDS011;6456;42.680;23.260;2023-02-27T09:04:58;5.37;;;2.47;;
12784;SDS011;6456;42.680;23.260;2023-02-27T09:07:27;2.50;;;2.30;;
12784;SDS011;6456;42.680;23.260;2023-02-27T09:09:54;3.10;;;2.43;;
12784;SDS011;6456;42.680;23.260;2023-02-27T09:12:20;3.40;;;2.83;;
12784;SDS011;6456;42.680;23.260;2023-02-27T09:14:47;3.20;;;2.90;;
12784;SDS011;6456;42.680;23.260;2023-02-27T09:17:14;2.80;;;2.60;;
12784;SDS011;6456;42.680;23.260;2023-02-27T09:19:41;4.07;;;2.90;;
12784;SDS011;6456;42.680;23.260;2023-02-27T09:22:08;2.93;;;2.53;;
12784;SDS011;6456;42.680;23.260;2023-02-27T09:24:36;3.17;;;2.87;;
12784;SDS011;6456;42.680;23.260;2023-02-27T09:27:03;3.07;;;2.33;;
12784;SDS011;6456;42.680;23.260;2023-02-27T09:29:29;2.60;;;2.40;;
12784;SDS011;6456;42.680;23.260;2023-02-27T09:31:56;3.20;;;2.63;;
12784;SDS011;6456;42.680;23.260;2023-02-27T09:34:23;3.63;;;2.63;;
12784;SDS011;6456;42.680;23.260;2023-02-27T09:36:50;3.03;;;2.37;;
12784;SDS011;6456;42.680;23.260;2023-02-27T09:39:17;3.57;;;2.67;;
12784;SDS011;6456;42.680;23.260;2023-02-27T09:41:49;3.50;;;2.43;;
12784;SDS011;6456;42.680;23.260;2023-02-27T09:44:31;3.67;;;3.07;;
12784;SDS011;6456;42.680;23.260;2023-02-27T09:47:02;3.73;;;3.13;;
12784;SDS011;6456;42.680;23.260;2023-02-27T09:49:31;3.20;;;2.90;;
12784;SDS011;6456;42.680;23.260;2023-02-27T09:52:01;3.50;;;3.07;;
12784;SDS011;6456;42.680;23.260;2023-02-27T09:54:29;5.17;;;3.37;;
12784;SDS011;6456;42.680;23.260;2023-02-27T09:57:01;6.77;;;4.10;;
12784;SDS011;6456;42.680;23.260;2023-02-27T09:59:33;7.23;;;4.20;;
12784;SDS011;6456;42.680;23.260;2023-02-27T10:02:04;4.10;;;3.73;;
12784;SDS011;6456;42.680;23.260;2023-02-27T10:04:46;3.90;;;3.60;;
12784;SDS011;6456;42.680;23.260;2023-02-27T10:07:20;3.73;;;3.37;;
12784;SDS011;6456;42.680;23.260;2023-02-27T10:09:59;4.40;;;4.00;;
12784;SDS011;6456;42.680;23.260;2023-02-27T10:15:24;6.03;;;3.90;;
12784;SDS011;6456;42.680;23.260;2023-02-27T10:17:54;5.93;;;3.93;;
12784;SDS011;6456;42.680;23.260;2023-02-27T10:20:25;4.60;;;4.10;;
12784;SDS011;6456;42.680;23.260;2023-02-27T10:22:56;6.40;;;4.30;;
12784;SDS011;6456;42.680;23.260;2023-02-27T10:25:27;7.27;;;4.63;;
12784;SDS011;6456;42.680;23.260;2023-02-27T10:28:01;5.70;;;4.77;;
12784;SDS011;6456;42.680;23.260;2023-02-27T10:30:37;5.93;;;4.80;;
12784;SDS011;6456;42.680;23.260;2023-02-27T10:33:05;12.33;;;4.97;;
12784;SDS011;6456;42.680;23.260;2023-02-27T10:35:35;6.40;;;5.50;;
12784;SDS011;6456;42.680;23.260;2023-02-27T10:38:08;5.93;;;5.13;;
12784;SDS011;6456;42.680;23.260;2023-02-27T10:40:39;6.57;;;5.97;;
12784;SDS011;6456;42.680;23.260;2023-02-27T10:43:09;9.70;;;7.17;;
12784;SDS011;6456;42.680;23.260;2023-02-27T10:45:40;8.73;;;6.60;;
12784;SDS011;6456;42.680;23.260;2023-02-27T10:48:08;6.90;;;6.20;;
12784;SDS011;6456;42.680;23.260;2023-02-27T10:50:36;12.03;;;6.90;;
12784;SDS011;6456;42.680;23.260;2023-02-27T10:53:06;8.10;;;5.10;;
12784;SDS011;6456;42.680;23.260;2023-02-27T10:55:43;5.30;;;4.80;;
12784;SDS011;6456;42.680;23.260;2023-02-27T10:58:18;6.43;;;4.90;;
12784;SDS011;6456;42.680;23.260;2023-02-27T11:00:51;6.83;;;5.30;;
12784;SDS011;6456;42.680;23.260;2023-02-27T11:03:21;7.13;;;5.50;;
12784;SDS011;6456;42.680;23.260;2023-02-27T11:05:53;7.37;;;5.23;;
12784;SDS011;6456;42.680;23.260;2023-02-27T11:08:23;6.00;;;5.40;;
12784;SDS011;6456;42.680;23.260;2023-02-27T11:10:52;6.53;;;4.93;;
12784;SDS011;6456;42.680;23.260;2023-02-27T11:13:23;7.33;;;5.00;;
12784;SDS011;6456;42.680;23.260;2023-02-27T11:16:00;6.73;;;5.30;;
12784;SDS011;6456;42.680;23.260;2023-02-27T11:18:33;8.10;;;5.17;;
12784;SDS011;6456;42.680;23.260;2023-02-27T11:21:09;9.13;;;6.03;;
12784;SDS011;6456;42.680;23.260;2023-02-27T11:23:38;8.47;;;6.10;;
12784;SDS011;6456;42.680;23.260;2023-02-27T11:26:16;9.30;;;6.20;;
12784;SDS011;6456;42.680;23.260;2023-02-27T11:28:55;8.03;;;6.27;;
12784;SDS011;6456;42.680;23.260;2023-02-27T11:31:34;10.30;;;6.77;;
12784;SDS011;6456;42.680;23.260;2023-02-27T11:34:02;10.60;;;6.27;;
12784;SDS011;6456;42.680;23.260;2023-02-27T11:36:40;9.43;;;6.93;;
12784;SDS011;6456;42.680;23.260;2023-02-27T11:39:16;10.87;;;6.90;;
12784;SDS011;6456;42.680;23.260;2023-02-27T11:41:48;9.90;;;7.47;;
12784;SDS011;6456;42.680;23.260;2023-02-27T11:44:18;8.87;;;6.83;;
12784;SDS011;6456;42.680;23.260;2023-02-27T11:46:50;8.47;;;6.70;;
12784;SDS011;6456;42.680;23.260;2023-02-27T11:49:24;10.80;;;6.83;;
12784;SDS011;6456;42.680;23.260;2023-02-27T11:52:01;8.20;;;6.17;;
12784;SDS011;6456;42.680;23.260;2023-02-27T11:54:35;8.07;;;6.27;;
12784;SDS011;6456;42.680;23.260;2023-02-27T11:57:08;11.30;;;6.60;;
12784;SDS011;6456;42.680;23.260;2023-02-27T11:59:45;7.17;;;6.43;;
12784;SDS011;6456;42.680;23.260;2023-02-27T12:02:19;8.67;;;6.27;;
12784;SDS011;6456;42.680;23.260;2023-02-27T12:04:53;7.67;;;5.93;;
12784;SDS011;6456;42.680;23.260;2023-02-27T12:07:23;9.00;;;6.33;;
12784;SDS011;6456;42.680;23.260;2023-02-27T12:09:58;10.23;;;5.97;;
12784;SDS011;6456;42.680;23.260;2023-02-27T12:12:31;10.27;;;6.10;;
12784;SDS011;6456;42.680;23.260;2023-02-27T12:15:06;10.23;;;6.47;;
12784;SDS011;6456;42.680;23.260;2023-02-27T12:17:44;9.33;;;6.80;;
12784;SDS011;6456;42.680;23.260;2023-02-27T12:20:20;9.83;;;6.83;;
12784;SDS011;6456;42.680;23.260;2023-02-27T12:22:53;11.23;;;7.27;;
12784;SDS011;6456;42.680;23.260;2023-02-27T12:25:26;9.70;;;6.50;;
12784;SDS011;6456;42.680;23.260;2023-02-27T12:28:03;8.77;;;6.87;;
12784;SDS011;6456;42.680;23.260;2023-02-27T12:30:41;10.60;;;6.83;;
12784;SDS011;6456;42.680;23.260;2023-02-27T12:33:16;8.33;;;6.83;;
12784;SDS011;6456;42.680;23.260;2023-02-27T12:35:49;12.70;;;7.10;;
12784;SDS011;6456;42.680;23.260;2023-02-27T12:38:21;8.90;;;7.33;;
12784;SDS011;6456;42.680;23.260;2023-02-27T12:40:52;9.93;;;6.63;;
12784;SDS011;6456;42.680;23.260;2023-02-27T12:43:27;9.10;;;7.07;;
12784;SDS011;6456;42.680;23.260;2023-02-27T12:46:16;13.43;;;8.80;;
12784;SDS011;6456;42.680;23.260;2023-02-27T12:48:54;10.27;;;8.17;;
12784;SDS011;6456;42.680;23.260;2023-02-27T12:51:33;12.73;;;8.10;;
12784;SDS011;6456;42.680;23.260;2023-02-27T12:54:13;10.47;;;7.30;;
12784;SDS011;6456;42.680;23.260;2023-02-27T12:56:58;13.67;;;7.97;;
12784;SDS011;6456;42.680;23.260;2023-02-27T12:59:39;10.20;;;7.77;;
12784;SDS011;6456;42.680;23.260;2023-02-27T13:02:24;10.23;;;7.00;;
12784;SDS011;6456;42.680;23.260;2023-02-27T13:05:04;12.23;;;7.50;;
12784;SDS011;6456;42.680;23.260;2023-02-27T13:07:43;9.63;;;6.57;;
12784;SDS011;6456;42.680;23.260;2023-02-27T13:10:18;10.53;;;6.50;;
12784;SDS011;6456;42.680;23.260;2023-02-27T13:12:51;10.73;;;7.70;;
12784;SDS011;6456;42.680;23.260;2023-02-27T13:15:24;11.37;;;8.17;;
12784;SDS011;6456;42.680;23.260;2023-02-27T13:18:00;9.83;;;7.67;;
12784;SDS011;6456;42.680;23.260;2023-02-27T13:20:36;5.20;;;4.70;;
12784;SDS011;6456;42.680;23.260;2023-02-27T13:23:10;7.23;;;4.90;;
12784;SDS011;6456;42.680;23.260;2023-02-27T13:25:45;6.10;;;5.50;;
12784;SDS011;6456;42.680;23.260;2023-02-27T13:28:17;5.93;;;5.33;;
12784;SDS011;6456;42.680;23.260;2023-02-27T13:30:51;7.53;;;5.73;;
12784;SDS011;6456;42.680;23.260;2023-02-27T13:33:29;5.90;;;5.30;;
12784;SDS011;6456;42.680;23.260;2023-02-27T13:36:05;8.07;;;5.33;;
12784;SDS011;6456;42.680;23.260;2023-02-27T13:38:40;8.77;;;5.23;;
12784;SDS011;6456;42.680;23.260;2023-02-27T13:50:46;8.67;;;5.20;;
12784;SDS011;6456;42.680;23.260;2023-02-27T13:53:15;7.63;;;5.23;;
12784;SDS011;6456;42.680;23.260;2023-02-27T13:55:44;8.97;;;5.23;;
12784;SDS011;6456;42.680;23.260;2023-02-27T13:58:15;7.13;;;5.40;;
12784;SDS011;6456;42.680;23.260;2023-02-27T14:00:54;7.23;;;4.97;;
12784;SDS011;6456;42.680;23.260;2023-02-27T14:03:24;8.50;;;5.30;;
12784;SDS011;6456;42.680;23.260;2023-02-27T14:05:56;5.53;;;4.70;;
12784;SDS011;6456;42.680;23.260;2023-02-27T14:08:28;6.20;;;4.63;;
12784;SDS011;6456;42.680;23.260;2023-02-27T14:11:00;6.67;;;5.23;;
12784;SDS011;6456;42.680;23.260;2023-02-27T14:13:57;9.77;;;5.13;;
12784;SDS011;6456;42.680;23.260;2023-02-27T14:19:42;6.50;;;5.00;;
12784;SDS011;6456;42.680;23.260;2023-02-27T14:22:38;7.13;;;5.10;;
12784;SDS011;6456;42.680;23.260;2023-02-27T14:25:33;7.50;;;5.00;;
12784;SDS011;6456;42.680;23.260;2023-02-27T14:28:03;7.67;;;4.73;;
12784;SDS011;6456;42.680;23.260;2023-02-27T14:30:39;7.83;;;4.80;;
12784;SDS011;6456;42.680;23.260;2023-02-27T14:33:13;6.40;;;5.07;;
12784;SDS011;6456;42.680;23.260;2023-02-27T14:35:45;5.10;;;4.60;;
12784;SDS011;6456;42.680;23.260;2023-02-27T14:38:18;6.80;;;5.00;;
12784;SDS011;6456;42.680;23.260;2023-02-27T14:40:49;6.57;;;5.30;;
12784;SDS011;6456;42.680;23.260;2023-02-27T14:43:33;6.40;;;4.80;;
12784;SDS011;6456;42.680;23.260;2023-02-27T14:46:11;7.40;;;5.60;;
12784;SDS011;6456;42.680;23.260;2023-02-27T14:48:45;6.67;;;5.07;;
12784;SDS011;6456;42.680;23.260;2023-02-27T14:51:13;7.00;;;5.90;;
12784;SDS011;6456;42.680;23.260;2023-02-27T14:53:42;6.77;;;5.03;;
12784;SDS011;6456;42.680;23.260;2023-02-27T14:56:13;6.77;;;5.20;;
12784;SDS011;6456;42.680;23.260;2023-02-27T14:58:45;8.77;;;6.20;;
12784;SDS011;6456;42.680;23.260;2023-02-27T15:01:31;10.37;;;6.87;;
12784;SDS011;6456;42.680;23.260;2023-02-27T15:04:00;9.00;;;6.20;;
12784;SDS011;6456;42.680;23.260;2023-02-27T15:06:29;8.57;;;6.47;;
12784;SDS011;6456;42.680;23.260;2023-02-27T15:09:03;8.20;;;6.57;;
12784;SDS011;6456;42.680;23.260;2023-02-27T15:11:31;8.13;;;6.70;;
12784;SDS011;6456;42.680;23.260;2023-02-27T15:13:59;7.83;;;6.77;;
12784;SDS011;6456;42.680;23.260;2023-02-27T15:16:28;9.13;;;6.13;;
12784;SDS011;6456;42.680;23.260;2023-02-27T15:19:15;7.73;;;5.90;;
12784;SDS011;6456;42.680;23.260;2023-02-27T15:21:44;9.07;;;7.10;;
12784;SDS011;6456;42.680;23.260;2023-02-27T15:24:23;9.97;;;7.20;;
12784;SDS011;6456;42.680;23.260;2023-02-27T15:26:55;10.83;;;7.50;;
12784;SDS011;6456;42.680;23.260;2023-02-27T15:29:25;11.53;;;7.87;;
12784;SDS011;6456;42.680;23.260;2023-02-27T15:31:59;9.17;;;7.73;;
12784;SDS011;6456;42.680;23.260;2023-02-27T15:34:26;14.80;;;9.13;;